Time;durP1;ratioP1;P1;durP2;ratioP2;P2;SDS_P1;SDS_P2;PMS_P1;PMS_P2;Temp;Humidity;BMP_temperature;BMP_pressure;BME280_temperature;BME280_humidity;BME280_pressure;Samples;Min_cycle;Max_cycle;Signal;HPM_P1;HPM_P2
2022/02/20 00:00:27;;;;;;;1.48;1.00;;;;;;;2.73;80.88;97780.56;4186219;28;20456;-72
2022/02/20 00:02:28;;;;;;;2.42;1.10;;;;;;;2.65;82.53;97762.38;4187231;28;20037;-72
2022/02/20 00:04:28;;;;;;;1.60;1.00;;;;;;;2.67;81.13;97766.38;4192727;28;20039;-72
2022/02/20 00:06:29;;;;;;;2.25;1.20;;;;;;;2.69;81.57;97769.53;4185877;28;20431;-72
2022/02/20 00:08:29;;;;;;;2.17;0.98;;;;;;;2.66;82.14;97751.13;4185691;28;20037;-72
2022/02/20 00:10:30;;;;;;;1.10;0.82;;;;;;;2.62;82.51;97773.97;4187197;28;20056;-72
2022/02/20 00:12:31;;;;;;;1.20;0.93;;;;;;;2.60;82.69;97763.41;4188698;28;20040;-72
2022/02/20 00:14:31;;;;;;;1.00;0.90;;;;;;;2.63;82.71;97781.84;4191703;28;20028;-72
2022/02/20 00:16:31;;;;;;;0.95;0.90;;;;;;;2.71;82.02;97764.53;4185664;28;20040;-72
2022/02/20 00:18:32;;;;;;;1.58;1.10;;;;;;;2.77;81.16;97759.63;4185620;28;20481;-72
2022/02/20 00:20:33;;;;;;;2.83;0.82;;;;;;;2.83;80.71;97760.19;4188380;28;20060;-72
2022/02/20 00:22:34;;;;;;;1.35;1.00;;;;;;;2.87;81.57;97769.28;4185386;28;20124;-72
2022/02/20 00:24:34;;;;;;;0.80;0.80;;;;;;;2.79;82.20;97758.13;4196611;28;20033;-72
2022/02/20 00:26:34;;;;;;;2.05;0.93;;;;;;;2.75;82.01;97743.59;4184875;28;20481;-72
2022/02/20 00:28:35;;;;;;;1.60;1.00;;;;;;;2.85;81.71;97746.97;4192734;28;20045;-72
2022/02/20 00:30:35;;;;;;;4.57;0.90;;;;;;;2.83;82.04;97752.78;4189594;28;20071;-72
2022/02/20 00:32:36;;;;;;;2.70;1.00;;;;;;;2.77;82.69;97752.22;4185964;28;20072;-72
2022/02/20 00:34:36;;;;;;;2.28;0.90;;;;;;;2.87;80.64;97725.56;4185840;28;20069;-72
2022/02/20 00:36:36;;;;;;;2.15;1.30;;;;;;;2.82;82.41;97729.34;4193244;28;20051;-72
2022/02/20 00:38:37;;;;;;;2.33;0.90;;;;;;;2.80;82.43;97726.94;4201178;28;20046;-72
2022/02/20 00:40:38;;;;;;;3.40;1.10;;;;;;;2.80;82.54;97729.69;4188277;28;20094;-72
2022/02/20 00:42:38;;;;;;;1.38;1.00;;;;;;;2.81;81.90;97723.09;4185123;28;20037;-72
2022/02/20 00:44:39;;;;;;;2.08;0.85;;;;;;;2.83;81.67;97717.28;4196142;28;20115;-72
2022/02/20 00:46:39;;;;;;;1.85;0.90;;;;;;;2.80;82.39;97723.41;4199608;28;20040;-72
2022/02/20 00:48:39;;;;;;;2.33;0.90;;;;;;;2.87;81.99;97706.44;4201403;28;20719;-72
2022/02/20 00:50:40;;;;;;;2.00;1.00;;;;;;;2.86;82.20;97713.06;4200455;28;20077;-72
2022/02/20 00:52:40;;;;;;;1.73;0.82;;;;;;;2.83;82.35;97706.34;4191467;28;20037;-72
2022/02/20 00:54:41;;;;;;;1.95;0.93;;;;;;;2.86;81.57;97708.38;4185721;28;20101;-72
2022/02/20 00:56:41;;;;;;;1.02;0.93;;;;;;;2.83;81.63;97706.34;4185033;28;20045;-72
2022/02/20 00:58:42;;;;;;;1.27;1.00;;;;;;;2.94;80.50;97698.47;4185184;28;20041;-72
2022/02/20 01:00:42;;;;;;;3.28;1.00;;;;;;;2.96;81.07;97688.75;4198150;28;20051;-72
2022/02/20 01:02:43;;;;;;;1.27;1.10;;;;;;;2.90;81.65;97706.56;4192231;28;20033;-72
2022/02/20 01:04:43;;;;;;;2.20;1.33;;;;;;;2.92;81.97;97700.75;4195694;28;20044;-72
2022/02/20 01:06:43;;;;;;;2.05;1.20;;;;;;;3.06;80.61;97692.94;4203357;28;20201;-72
2022/02/20 01:08:43;;;;;;;1.30;1.00;;;;;;;3.03;81.04;97699.09;4189672;28;20469;-72
2022/02/20 01:10:45;;;;;;;1.67;1.20;;;;;;;3.01;81.23;97710.38;4197749;28;20121;-72
2022/02/20 01:12:45;;;;;;;0.93;0.90;;;;;;;3.05;82.09;97696.81;4204256;28;20072;-72
2022/02/20 01:14:46;;;;;;;1.35;0.93;;;;;;;3.03;81.20;97708.09;4189933;28;20048;-72
2022/02/20 01:16:47;;;;;;;4.72;1.00;;;;;;;3.13;81.23;97690.41;4188214;28;20063;-72
2022/02/20 01:18:47;;;;;;;2.05;1.05;;;;;;;3.13;81.03;97703.28;4188722;28;20045;-72
2022/02/20 01:20:47;;;;;;;4.78;1.17;;;;;;;3.17;81.71;97720.59;4202162;28;20687;-72
2022/02/20 01:22:48;;;;;;;2.03;1.10;;;;;;;3.16;81.03;97705.34;4193587;28;20040;-72
2022/02/20 01:24:48;;;;;;;1.98;1.15;;;;;;;3.15;81.33;97711.94;4202138;28;20132;-72
2022/02/20 01:26:48;;;;;;;2.72;1.20;;;;;;;3.16;81.65;97729.94;4203114;28;20574;-72
2022/02/20 01:28:49;;;;;;;2.88;1.10;;;;;;;3.25;80.84;97739.56;4195592;28;20048;-72
2022/02/20 01:30:49;;;;;;;2.28;1.02;;;;;;;3.21;81.36;97741.41;4188359;28;20055;-72
2022/02/20 01:32:49;;;;;;;1.50;1.20;;;;;;;3.22;81.41;97745.72;4189763;28;20047;-72
2022/02/20 01:34:50;;;;;;;1.90;1.20;;;;;;;3.25;81.53;97725.09;4188165;28;20048;-72
2022/02/20 01:36:50;;;;;;;1.27;1.10;;;;;;;3.25;81.36;97717.69;4188203;28;20080;-72
2022/02/20 01:38:51;;;;;;;2.83;1.10;;;;;;;3.29;80.91;97709.59;4192044;28;20040;-72
2022/02/20 01:40:53;;;;;;;1.65;1.15;;;;;;;3.38;81.01;97712.97;4195624;28;20054;-72
2022/02/20 01:42:54;;;;;;;4.25;1.30;;;;;;;3.45;79.16;97728.78;4200778;28;20036;-72
2022/02/20 01:44:54;;;;;;;1.52;1.42;;;;;;;3.51;79.64;97719.19;4189262;28;20041;-72
2022/02/20 01:47:03;;;;;;;2.08;1.25;;;;;;;3.57;79.63;97720.53;4187176;28;20090;-72
2022/02/20 01:49:03;;;;;;;1.40;1.20;;;;;;;3.57;79.47;97715.84;4191063;28;20047;-72
2022/02/20 01:51:05;;;;;;;1.63;1.20;;;;;;;3.60;79.14;97715.13;4190626;28;20477;-72
2022/02/20 01:53:05;;;;;;;2.83;1.30;;;;;;;3.62;79.30;97707.34;4194707;28;20087;-72
2022/02/20 01:55:09;;;;;;;3.63;1.45;;;;;;;3.57;80.01;97688.50;4188500;28;20040;-72
2022/02/20 01:57:10;;;;;;;2.97;1.17;;;;;;;3.57;79.01;97696.69;4201134;28;20040;-72
2022/02/20 01:59:11;;;;;;;4.70;1.40;;;;;;;3.61;79.16;97691.31;4201325;28;20156;-72
2022/02/20 02:01:11;;;;;;;3.65;1.50;;;;;;;3.59;79.66;97719.00;4202541;28;20040;-72
2022/02/20 02:03:13;;;;;;;2.15;1.15;;;;;;;3.64;79.23;97677.75;4194555;28;20051;-72
2022/02/20 02:05:13;;;;;;;4.83;1.63;;;;;;;3.57;80.18;97679.50;4200331;28;20502;-72
2022/02/20 02:07:14;;;;;;;3.78;1.20;;;;;;;3.65;79.52;97686.75;4201890;28;20267;-72
2022/02/20 02:09:16;;;;;;;4.82;1.45;;;;;;;3.62;79.50;97684.69;4198257;28;20055;-72
2022/02/20 02:11:18;;;;;;;2.00;1.45;;;;;;;3.63;79.60;97669.84;4188310;28;20135;-72
2022/02/20 02:13:18;;;;;;;1.50;1.25;;;;;;;3.62;79.44;97682.75;4201867;28;20070;-72
2022/02/20 02:15:18;;;;;;;2.42;1.10;;;;;;;3.60;80.24;97674.09;4202302;28;20079;-72
2022/02/20 02:17:18;;;;;;;1.70;1.30;;;;;;;3.63;79.74;97665.19;4200318;28;20051;-72
2022/02/20 02:19:19;;;;;;;1.42;1.13;;;;;;;3.72;80.13;97650.53;4201859;28;20372;-72
2022/02/20 02:21:19;;;;;;;4.35;2.05;;;;;;;3.74;79.42;97665.47;4200404;28;20048;-72
2022/02/20 02:23:19;;;;;;;5.80;1.40;;;;;;;3.82;79.19;97671.91;4187577;28;20083;-72
2022/02/20 02:25:20;;;;;;;4.75;1.60;;;;;;;3.81;78.16;97662.91;4201182;28;20127;-72
2022/02/20 02:27:21;;;;;;;2.63;1.13;;;;;;;3.84;78.73;97647.72;4201518;28;20044;-72
2022/02/20 02:29:21;;;;;;;3.25;1.15;;;;;;;3.88;78.94;97670.47;4202462;28;20054;-72
2022/02/20 02:31:21;;;;;;;8.13;2.13;;;;;;;3.82;78.99;97660.97;4202327;28;20125;-72
2022/02/20 02:33:30;;;;;;;2.47;1.45;;;;;;;3.90;78.59;97655.31;4201877;28;20545;-72
2022/02/20 02:35:30;;;;;;;3.30;1.30;;;;;;;3.84;79.74;97669.63;4195913;28;20040;-72
2022/02/20 02:37:31;;;;;;;5.38;2.53;;;;;;;3.86;79.41;97664.56;4202633;28;20169;-72
2022/02/20 02:39:31;;;;;;;6.28;1.52;;;;;;;3.87;79.76;97666.16;4201408;28;20048;-72
2022/02/20 02:41:31;;;;;;;3.80;1.27;;;;;;;3.88;79.86;97673.22;4190949;28;20131;-72
2022/02/20 02:43:36;;;;;;;4.22;1.52;;;;;;;3.88;79.67;97681.44;4187133;28;20040;-72
2022/02/20 02:45:36;;;;;;;4.70;1.50;;;;;;;3.89;80.31;97680.31;4186847;28;20707;-72
2022/02/20 02:47:36;;;;;;;3.67;1.63;;;;;;;3.90;80.07;97679.16;4191762;28;20048;-72
2022/02/20 02:49:39;;;;;;;4.72;1.67;;;;;;;3.87;80.42;97691.59;4202194;28;20044;-72
2022/02/20 02:51:40;;;;;;;5.88;1.70;;;;;;;4.00;79.95;97691.50;4189352;28;20056;-72
2022/02/20 02:53:40;;;;;;;4.57;1.30;;;;;;;3.97;80.37;97690.25;4186955;28;20040;-72
2022/02/20 02:55:49;;;;;;;2.95;1.73;;;;;;;4.08;80.14;97705.00;4187232;28;20425;-72
2022/02/20 02:57:49;;;;;;;4.15;1.50;;;;;;;4.12;79.93;97708.63;4185617;28;20037;-72
2022/02/20 02:59:50;;;;;;;5.65;1.70;;;;;;;4.09;79.74;97698.38;4186941;28;20047;-72
2022/02/20 03:01:56;;;;;;;5.22;1.90;;;;;;;4.13;79.79;97702.00;4186633;28;20041;-72
2022/02/20 03:03:59;;;;;;;4.40;1.52;;;;;;;4.16;79.65;97705.97;4186362;28;20040;-72
2022/02/20 03:05:59;;;;;;;3.97;1.50;;;;;;;4.20;79.93;97715.84;4186622;28;20056;-72
2022/02/20 03:08:00;;;;;;;2.67;1.52;;;;;;;4.27;79.87;97714.44;4193418;28;20048;-72
2022/02/20 03:10:00;;;;;;;4.63;1.60;;;;;;;4.36;79.65;97728.75;4189629;28;20055;-72
2022/02/20 03:12:00;;;;;;;3.38;1.45;;;;;;;4.33;80.11;97734.94;4195766;28;20044;-72
2022/02/20 03:14:02;;;;;;;4.82;1.75;;;;;;;4.36;80.56;97748.72;4186465;28;20075;-73
2022/02/20 03:16:04;;;;;;;3.65;1.50;;;;;;;4.46;80.24;97752.84;4186359;28;20032;-72
2022/02/20 03:18:04;;;;;;;5.10;1.75;;;;;;;4.44;81.55;97749.69;4185675;28;20115;-72
2022/02/20 03:20:05;;;;;;;6.00;2.15;;;;;;;4.39;82.45;97758.19;4186571;28;20056;-72
2022/02/20 03:22:06;;;;;;;3.63;1.83;;;;;;;4.42;82.51;97758.25;4186072;28;20055;-72
2022/02/20 03:24:06;;;;;;;2.13;1.50;;;;;;;4.39;83.50;97775.41;4186185;28;20032;-72
2022/02/20 03:26:06;;;;;;;7.20;2.53;;;;;;;4.37;84.60;97785.91;4185922;28;20035;-72
2022/02/20 03:28:07;;;;;;;3.25;1.95;;;;;;;4.30;85.36;97804.88;4185414;28;20082;-72
2022/02/20 03:30:08;;;;;;;5.38;1.92;;;;;;;4.25;85.82;97791.47;4188158;28;20051;-72
2022/02/20 03:32:08;;;;;;;5.30;1.83;;;;;;;4.18;86.77;97791.28;4186753;28;20029;-72
2022/02/20 03:34:09;;;;;;;3.88;1.80;;;;;;;4.10;87.09;97784.84;4187349;28;20383;-72
2022/02/20 03:36:09;;;;;;;3.88;1.77;;;;;;;4.08;88.76;97800.03;4186293;28;20040;-72
2022/02/20 03:38:10;;;;;;;4.75;1.52;;;;;;;4.03;88.77;97808.50;4185289;28;20074;-72
2022/02/20 03:40:11;;;;;;;3.30;1.65;;;;;;;3.95;88.86;97797.34;4201715;28;20169;-72
2022/02/20 03:42:11;;;;;;;2.92;1.80;;;;;;;3.91;89.68;97807.44;4201580;28;20452;-72
2022/02/20 03:44:11;;;;;;;5.22;1.70;;;;;;;3.79;90.73;97793.78;4192813;28;20060;-72
2022/02/20 03:46:12;;;;;;;3.22;1.77;;;;;;;3.77;89.74;97828.13;4186649;28;20032;-72
2022/02/20 03:48:12;;;;;;;4.50;1.67;;;;;;;3.76;91.49;97843.75;4198068;28;20024;-72
2022/02/20 03:50:13;;;;;;;4.68;1.70;;;;;;;3.75;91.15;97825.75;4200437;28;20020;-72
2022/02/20 03:52:13;;;;;;;6.50;2.13;;;;;;;3.71;91.52;97841.25;4200820;28;20024;-72
2022/02/20 03:54:13;;;;;;;5.35;1.77;;;;;;;3.70;91.61;97847.88;4201811;28;20042;-72
2022/02/20 03:56:13;;;;;;;4.53;1.52;;;;;;;3.67;91.27;97830.22;4201501;28;20055;-72
2022/02/20 03:58:14;;;;;;;4.43;2.22;;;;;;;3.65;92.02;97843.47;4198650;28;20123;-72
2022/02/20 04:00:19;;;;;;;4.53;1.90;;;;;;;3.65;91.97;97853.59;4186065;28;20081;-72
2022/02/20 04:02:19;;;;;;;3.88;1.70;;;;;;;3.69;91.04;97843.56;4186438;28;20422;-72
2022/02/20 04:04:20;;;;;;;5.53;1.77;;;;;;;3.66;90.79;97844.25;4193199;28;20952;-72
2022/02/20 04:06:20;;;;;;;3.47;1.63;;;;;;;3.76;89.45;97846.50;4198798;28;20048;-72
2022/02/20 04:08:20;;;;;;;6.88;2.13;;;;;;;3.80;88.41;97857.53;4185719;28;20524;-72
2022/02/20 04:10:21;;;;;;;10.75;2.33;;;;;;;3.90;87.51;97857.03;4186060;28;20052;-72
2022/02/20 04:12:21;;;;;;;4.07;1.95;;;;;;;3.96;87.41;97863.84;4185930;28;20056;-72
2022/02/20 04:14:21;;;;;;;5.68;1.95;;;;;;;4.01;86.67;97857.31;4190798;28;20040;-72
2022/02/20 04:16:22;;;;;;;2.20;1.70;;;;;;;3.97;87.10;97859.16;4200462;28;20036;-72
2022/02/20 04:18:22;;;;;;;7.20;2.00;;;;;;;4.08;86.43;97861.06;4190984;28;20059;-72
2022/02/20 04:20:23;;;;;;;4.45;1.88;;;;;;;4.09;85.73;97870.06;4185667;28;20029;-72
2022/02/20 04:22:23;;;;;;;3.50;2.05;;;;;;;4.24;85.05;97874.78;4186194;28;20048;-72
2022/02/20 04:24:23;;;;;;;3.67;1.73;;;;;;;4.20;84.84;97882.88;4186170;28;20360;-72
2022/02/20 04:26:24;;;;;;;4.93;2.03;;;;;;;4.25;84.97;97884.59;4187583;28;20131;-72
2022/02/20 04:28:25;;;;;;;3.40;1.88;;;;;;;4.32;84.52;97895.72;4201106;28;20044;-72
2022/02/20 04:30:25;;;;;;;9.73;3.38;;;;;;;4.35;84.18;97897.75;4196649;28;20066;-72
2022/02/20 04:32:26;;;;;;;3.92;1.88;;;;;;;4.41;83.42;97904.56;4185359;28;20047;-72
2022/02/20 04:34:26;;;;;;;2.78;1.92;;;;;;;4.45;83.51;97904.66;4191862;28;20048;-72
2022/02/20 04:36:27;;;;;;;5.53;1.75;;;;;;;4.35;83.88;97903.22;4188173;28;20033;-72
2022/02/20 04:38:27;;;;;;;5.15;2.08;;;;;;;4.37;83.69;97920.09;4188847;28;20048;-72
2022/02/20 04:40:28;;;;;;;5.63;2.10;;;;;;;4.39;83.70;97922.50;4187381;28;20041;-72
2022/02/20 04:42:28;;;;;;;4.82;1.90;;;;;;;4.41;83.56;97921.00;4199722;28;20048;-72
2022/02/20 04:44:29;;;;;;;4.15;2.00;;;;;;;4.37;83.89;97914.63;4203380;28;20043;-72
2022/02/20 04:46:33;;;;;;;8.77;2.00;;;;;;;4.35;83.79;97922.41;4200226;28;20439;-72
2022/02/20 04:48:34;;;;;;;5.18;2.28;;;;;;;4.35;83.44;97927.09;4188296;28;20475;-72
2022/02/20 04:50:34;;;;;;;4.95;2.00;;;;;;;4.41;83.21;97931.97;4188973;28;20045;-72
2022/02/20 04:52:34;;;;;;;5.78;2.05;;;;;;;4.48;82.50;97937.63;4197330;28;20059;-72
2022/02/20 04:54:35;;;;;;;6.05;2.25;;;;;;;4.46;81.66;97933.63;4202993;28;20271;-72
2022/02/20 04:56:35;;;;;;;2.72;1.92;;;;;;;4.47;81.32;97947.00;4188273;28;20075;-72
2022/02/20 04:58:36;;;;;;;4.07;1.70;;;;;;;4.47;80.94;97946.22;4188255;28;20103;-72
2022/02/20 05:00:36;;;;;;;3.40;2.53;;;;;;;4.50;81.07;97951.78;4188673;28;20496;-72
2022/02/20 05:02:37;;;;;;;2.38;1.52;;;;;;;4.50;81.03;97960.00;4193777;28;20155;-72
2022/02/20 05:04:37;;;;;;;5.25;2.08;;;;;;;4.55;80.41;97955.38;4191745;28;20048;-73
2022/02/20 05:06:38;;;;;;;3.85;1.90;;;;;;;4.52;80.35;97956.91;4189546;28;20048;-72
2022/02/20 05:08:38;;;;;;;5.28;2.22;;;;;;;4.54;79.57;97967.50;4188358;28;20082;-72
2022/02/20 05:10:39;;;;;;;5.22;2.03;;;;;;;4.57;79.50;97959.38;4194173;28;20037;-72
2022/02/20 05:12:39;;;;;;;3.90;2.00;;;;;;;4.57;79.27;97972.28;4188974;28;20078;-72
2022/02/20 05:14:39;;;;;;;4.45;2.08;;;;;;;4.56;79.05;97976.97;4192547;28;20040;-72
2022/02/20 05:16:40;;;;;;;5.18;1.90;;;;;;;4.56;78.96;97973.44;4192250;28;20126;-72
2022/02/20 05:18:40;;;;;;;5.93;1.90;;;;;;;4.55;78.62;97978.13;4188975;28;20086;-72
2022/02/20 05:20:42;;;;;;;2.63;1.90;;;;;;;4.57;77.98;97977.78;4189472;28;20111;-72
2022/02/20 05:22:42;;;;;;;8.70;2.28;;;;;;;4.53;78.31;97990.56;4193811;28;20126;-72
2022/02/20 05:24:44;;;;;;;3.47;1.90;;;;;;;4.50;78.96;97995.59;4190723;28;20045;-72
2022/02/20 05:26:44;;;;;;;8.10;2.15;;;;;;;4.53;77.50;97991.34;4190790;28;20071;-72
2022/02/20 05:28:45;;;;;;;2.40;1.92;;;;;;;4.60;77.36;97985.28;4191778;28;20037;-72
2022/02/20 05:30:45;;;;;;;5.60;2.08;;;;;;;4.53;77.60;97979.59;4188846;28;20044;-72
2022/02/20 05:32:45;;;;;;;5.10;2.08;;;;;;;4.50;77.87;97992.88;4191083;28;20048;-72
2022/02/20 05:34:46;;;;;;;4.00;2.28;;;;;;;4.51;78.76;97997.19;4194056;28;20537;-72
2022/02/20 05:36:46;;;;;;;3.90;2.03;;;;;;;4.45;78.82;98003.28;4192047;28;20047;-72
2022/02/20 05:38:46;;;;;;;5.47;2.05;;;;;;;4.49;78.33;97995.97;4191392;28;20064;-72
2022/02/20 05:40:46;;;;;;;3.35;1.75;;;;;;;4.44;78.59;98005.22;4193620;28;20055;-72
2022/02/20 05:42:47;;;;;;;4.03;1.85;;;;;;;4.40;79.18;98007.06;4189796;28;20075;-72
2022/02/20 05:44:47;;;;;;;4.30;2.10;;;;;;;4.43;79.14;98016.53;4194484;28;20032;-72
2022/02/20 05:46:47;;;;;;;4.63;2.55;;;;;;;4.42;78.16;98004.78;4188236;28;20174;-72
2022/02/20 05:48:48;;;;;;;6.30;2.60;;;;;;;4.53;77.37;98015.22;4191403;28;20044;-72
2022/02/20 05:50:51;;;;;;;2.85;1.90;;;;;;;4.48;78.20;98008.88;4192107;28;20042;-72
2022/02/20 05:52:52;;;;;;;3.40;1.80;;;;;;;4.42;78.42;98020.41;4191718;28;20500;-72
2022/02/20 05:54:52;;;;;;;5.82;1.95;;;;;;;4.47;78.52;98009.22;4192280;28;20040;-72
2022/02/20 05:56:53;;;;;;;2.92;2.00;;;;;;;4.49;78.41;98015.13;4190879;28;20040;-72
2022/02/20 05:58:53;;;;;;;3.20;1.80;;;;;;;4.53;77.57;98012.47;4190214;28;20131;-72
2022/02/20 06:00:53;;;;;;;5.40;2.25;;;;;;;4.47;78.79;98025.66;4192604;28;20105;-72
2022/02/20 06:02:55;;;;;;;7.28;2.60;;;;;;;4.38;79.10;98025.78;4191989;28;20040;-72
2022/02/20 06:04:55;;;;;;;2.97;1.55;;;;;;;4.44;78.73;98018.91;4191222;28;20044;-72
2022/02/20 06:06:55;;;;;;;4.70;2.45;;;;;;;4.36;79.40;98030.81;4192652;28;20089;-72
2022/02/20 06:08:56;;;;;;;2.78;2.03;;;;;;;4.35;80.03;98031.16;4189448;28;20051;-73
2022/02/20 06:10:56;;;;;;;8.18;2.00;;;;;;;4.29;79.69;98030.59;4187049;28;20043;-72
2022/02/20 06:12:57;;;;;;;5.15;2.13;;;;;;;4.31;79.50;98028.34;4193269;28;20403;-72
2022/02/20 06:14:57;;;;;;;6.53;2.72;;;;;;;4.28;79.33;98028.22;4189933;28;20671;-72
2022/02/20 06:16:57;;;;;;;5.70;2.20;;;;;;;4.21;79.78;98047.97;4186909;28;20044;-72
2022/02/20 06:18:58;;;;;;;6.32;2.95;;;;;;;4.23;79.20;98046.50;4187442;28;20055;-72
2022/02/20 06:20:59;;;;;;;6.28;2.58;;;;;;;4.18;79.38;98057.69;4188127;28;20048;-72
2022/02/20 06:22:59;;;;;;;3.15;1.67;;;;;;;4.14;79.59;98051.31;4191533;28;20032;-72
2022/02/20 06:25:00;;;;;;;4.88;1.73;;;;;;;4.19;78.80;98067.50;4117827;28;20060;-72
2022/02/20 06:27:00;;;;;;;3.83;2.20;;;;;;;4.16;79.02;98079.16;4183811;28;20360;-72
2022/02/20 06:29:00;;;;;;;4.07;2.22;;;;;;;4.14;79.42;98067.75;4191254;28;20037;-72
2022/02/20 06:31:01;;;;;;;4.15;1.90;;;;;;;4.08;79.89;98076.53;4189820;28;20351;-73
2022/02/20 06:33:01;;;;;;;5.03;2.20;;;;;;;4.06;78.94;98081.56;4190515;28;20237;-73
2022/02/20 06:35:04;;;;;;;4.63;2.75;;;;;;;4.08;79.58;98093.75;4192464;28;20487;-72
2022/02/20 06:37:04;;;;;;;4.53;2.10;;;;;;;4.13;78.87;98096.25;4190010;28;20045;-72
2022/02/20 06:39:05;;;;;;;4.55;2.20;;;;;;;4.20;77.92;98084.72;4190782;28;20431;-72
2022/02/20 06:41:09;;;;;;;2.15;1.60;;;;;;;4.20;78.09;98085.50;4190933;28;20047;-72
2022/02/20 06:43:09;;;;;;;4.53;2.22;;;;;;;4.23;77.50;98095.78;4187925;28;20783;-72
2022/02/20 06:45:10;;;;;;;5.88;3.35;;;;;;;4.24;76.69;98091.09;4190019;28;20032;-72
2022/02/20 06:47:11;;;;;;;5.93;2.95;;;;;;;4.27;77.08;98098.63;4191120;28;20160;-72
2022/02/20 06:49:11;;;;;;;6.28;2.70;;;;;;;4.30;76.85;98103.41;4189264;28;20067;-72
2022/02/20 06:51:12;;;;;;;10.35;2.40;;;;;;;4.24;76.76;98110.28;4190219;28;20123;-72
2022/02/20 06:53:12;;;;;;;4.13;2.50;;;;;;;4.27;76.02;98095.88;4191907;28;20075;-72
2022/02/20 06:55:12;;;;;;;4.28;2.42;;;;;;;4.30;76.48;98105.34;4190549;28;20057;-72
2022/02/20 06:57:15;;;;;;;6.65;3.17;;;;;;;4.26;76.97;98118.16;4189123;28;20035;-72
2022/02/20 06:59:16;;;;;;;3.85;2.50;;;;;;;4.34;76.38;98100.78;4190126;28;20056;-72
2022/02/20 07:01:16;;;;;;;5.60;3.45;;;;;;;4.35;75.42;98103.16;4187129;28;20060;-72
2022/02/20 07:03:16;;;;;;;7.60;4.00;;;;;;;4.32;76.04;98095.66;4190567;28;20258;-72
2022/02/20 07:05:17;;;;;;;11.82;4.30;;;;;;;4.39;75.26;98103.28;4190020;28;20136;-72
2022/02/20 07:07:17;;;;;;;5.15;2.60;;;;;;;4.41;74.94;98101.00;4188637;28;20053;-72
2022/02/20 07:09:17;;;;;;;4.03;3.08;;;;;;;4.39;74.82;98104.09;4192221;28;20040;-72
2022/02/20 07:11:18;;;;;;;3.20;2.25;;;;;;;4.41;75.01;98110.00;4189495;28;20044;-72
2022/02/20 07:13:18;;;;;;;5.47;3.05;;;;;;;4.40;74.83;98107.63;4186618;28;20194;-72
2022/02/20 07:15:20;;;;;;;5.85;3.20;;;;;;;4.35;75.04;98114.13;4189831;28;20040;-72
2022/02/20 07:17:20;;;;;;;4.60;2.78;;;;;;;4.42;74.80;98094.38;4188386;28;20580;-72
2022/02/20 07:19:21;;;;;;;5.53;2.58;;;;;;;4.41;75.41;98107.28;4190612;28;20040;-72
2022/02/20 07:21:24;;;;;;;4.60;3.03;;;;;;;4.41;75.56;98114.69;4186781;28;20589;-72
2022/02/20 07:23:24;;;;;;;6.95;3.20;;;;;;;4.44;75.13;98105.78;4186371;28;20743;-72
2022/02/20 07:25:25;;;;;;;5.47;4.18;;;;;;;4.51;75.03;98119.69;4186679;28;20044;-72
2022/02/20 07:27:25;;;;;;;6.63;3.08;;;;;;;4.55;75.02;98111.56;4190505;28;20059;-72
2022/02/20 07:29:26;;;;;;;8.48;3.10;;;;;;;4.50;75.68;98110.66;4185872;28;20043;-72
2022/02/20 07:31:28;;;;;;;3.92;2.75;;;;;;;4.54;75.70;98105.28;4186449;28;20036;-72
2022/02/20 07:33:28;;;;;;;6.87;3.80;;;;;;;4.62;75.22;98115.31;4183852;28;20037;-72
2022/02/20 07:35:28;;;;;;;5.18;2.42;;;;;;;4.64;74.83;98091.13;4187889;28;20036;-72
2022/02/20 07:37:29;;;;;;;5.03;2.63;;;;;;;4.67;75.16;98097.81;4189693;28;20044;-72
2022/02/20 07:39:30;;;;;;;4.40;2.40;;;;;;;4.69;75.14;98090.84;4190009;28;20071;-72
2022/02/20 07:41:30;;;;;;;3.83;2.08;;;;;;;4.71;75.15;98101.44;4189612;28;20452;-72
2022/02/20 07:43:31;;;;;;;6.97;2.28;;;;;;;4.75;75.17;98099.63;4190181;28;20052;-72
2022/02/20 07:45:31;;;;;;;6.45;2.42;;;;;;;4.82;74.98;98094.34;4192663;28;20068;-72
2022/02/20 07:47:31;;;;;;;5.57;2.35;;;;;;;4.81;75.99;98094.69;4186611;28;20036;-72
2022/02/20 07:49:32;;;;;;;5.20;2.80;;;;;;;4.83;75.49;98092.41;4185355;28;20551;-73
2022/02/20 07:51:32;;;;;;;5.70;2.55;;;;;;;4.94;74.40;98085.25;4187777;28;20162;-72
2022/02/20 07:53:32;;;;;;;5.18;2.70;;;;;;;5.07;74.69;98087.59;4186417;28;20062;-73
2022/02/20 07:55:34;;;;;;;8.65;3.83;;;;;;;5.11;74.31;98087.69;4186075;28;20079;-72
2022/02/20 07:57:35;;;;;;;6.17;2.70;;;;;;;5.16;74.16;98086.63;4184997;28;20547;-72
2022/02/20 07:59:36;;;;;;;5.30;2.22;;;;;;;5.19;73.73;98074.94;4185074;28;20361;-72
2022/02/20 08:01:36;;;;;;;6.57;2.40;;;;;;;5.21;72.92;98078.13;4185543;28;20033;-72
2022/02/20 08:03:38;;;;;;;3.05;1.92;;;;;;;5.26;73.46;98086.91;4185714;28;20539;-72
2022/02/20 08:05:39;;;;;;;3.92;2.33;;;;;;;5.23;74.49;98084.09;4189959;28;20036;-72
2022/02/20 08:07:39;;;;;;;4.15;2.08;;;;;;;5.20;73.94;98076.53;4187122;28;20668;-72
2022/02/20 08:09:39;;;;;;;4.22;2.10;;;;;;;5.19;74.23;98080.44;4185795;28;20357;-72
2022/02/20 08:11:39;;;;;;;5.22;2.22;;;;;;;5.21;74.46;98083.63;4190657;28;20043;-72
2022/02/20 08:13:40;;;;;;;5.68;2.30;;;;;;;5.16;74.60;98084.69;4191276;28;20043;-72
2022/02/20 08:15:40;;;;;;;6.70;2.22;;;;;;;5.22;74.10;98082.50;4191259;28;20191;-72
2022/02/20 08:17:45;;;;;;;5.35;2.28;;;;;;;5.25;74.31;98084.53;4194162;28;20071;-72
2022/02/20 08:19:45;;;;;;;3.40;2.10;;;;;;;5.32;73.78;98088.25;4189339;28;20039;-72
2022/02/20 08:21:46;;;;;;;3.80;2.38;;;;;;;5.33;74.45;98078.06;4189413;28;20376;-72
2022/02/20 08:23:46;;;;;;;7.63;2.78;;;;;;;5.39;74.35;98087.63;4194258;28;20044;-72
2022/02/20 08:25:47;;;;;;;3.97;2.20;;;;;;;5.38;74.40;98087.97;4204606;28;20416;-72
2022/02/20 08:27:47;;;;;;;3.45;2.25;;;;;;;5.36;74.32;98071.88;4201864;28;20036;-73
2022/02/20 08:29:47;;;;;;;7.90;2.67;;;;;;;5.34;74.79;98090.63;4203922;28;20067;-73
2022/02/20 08:31:48;;;;;;;3.38;1.55;;;;;;;5.32;74.72;98095.69;4203527;28;20044;-73
2022/02/20 08:33:49;;;;;;;4.70;2.10;;;;;;;5.36;73.85;98094.59;4205184;28;20040;-72
2022/02/20 08:35:50;;;;;;;5.07;2.20;;;;;;;5.32;75.19;98095.69;4203694;28;20043;-72
2022/02/20 08:37:50;;;;;;;6.15;2.05;;;;;;;5.36;74.55;98097.34;4203105;28;20369;-72
2022/02/20 08:39:51;;;;;;;3.13;1.92;;;;;;;5.47;74.24;98097.66;4199916;28;20510;-72
2022/02/20 08:41:51;;;;;;;7.95;2.00;;;;;;;5.48;74.65;98092.97;4191256;28;20523;-72
2022/02/20 08:43:51;;;;;;;4.22;2.10;;;;;;;5.53;74.92;98082.50;4194517;28;20056;-72
2022/02/20 08:45:53;;;;;;;5.47;1.88;;;;;;;5.55;74.88;98084.91;4191082;28;20048;-72
2022/02/20 08:47:53;;;;;;;4.53;2.60;;;;;;;5.51;74.61;98087.53;4192702;28;20062;-73
2022/02/20 08:49:54;;;;;;;8.98;2.15;;;;;;;5.51;75.18;98082.06;4190415;28;20057;-73
2022/02/20 08:51:55;;;;;;;8.30;2.35;;;;;;;5.53;75.01;98079.75;4193499;28;20252;-73
2022/02/20 08:53:55;;;;;;;3.80;2.25;;;;;;;5.55;75.46;98073.94;4189536;28;20504;-73
2022/02/20 08:55:56;;;;;;;6.15;2.15;;;;;;;5.64;75.50;98075.34;4195384;28;20195;-73
2022/02/20 08:57:56;;;;;;;5.50;1.90;;;;;;;5.68;75.29;98067.16;4187657;28;20033;-73
2022/02/20 08:59:57;;;;;;;8.57;2.30;;;;;;;5.70;76.24;98072.31;4188953;28;20420;-73
2022/02/20 09:01:57;;;;;;;7.78;2.65;;;;;;;5.73;76.55;98068.88;4195923;28;20036;-74
2022/02/20 09:04:02;;;;;;;5.20;2.38;;;;;;;5.72;76.66;98046.13;4199592;28;20051;-74
2022/02/20 09:06:02;;;;;;;7.15;2.00;;;;;;;5.67;76.98;98048.31;4195789;28;20040;-74
2022/02/20 09:08:03;;;;;;;5.20;2.42;;;;;;;5.69;77.39;98055.03;4186411;28;20048;-73
2022/02/20 09:10:06;;;;;;;5.43;2.28;;;;;;;5.66;78.41;98049.47;4192121;28;20044;-74
2022/02/20 09:12:07;;;;;;;6.47;1.92;;;;;;;5.68;78.47;98047.16;4186974;28;20036;-74
2022/02/20 09:14:07;;;;;;;7.28;2.40;;;;;;;5.67;79.06;98051.06;4194340;28;20036;-73
2022/02/20 09:16:08;;;;;;;3.78;1.75;;;;;;;5.68;76.68;98036.97;4192513;28;20114;-74
2022/02/20 09:18:09;;;;;;;2.95;1.98;;;;;;;5.65;79.76;98045.94;4194000;28;20036;-74
2022/02/20 09:20:13;;;;;;;6.53;2.17;;;;;;;5.61;79.85;98042.28;4191493;28;20028;-74
2022/02/20 09:22:14;;;;;;;3.13;1.60;;;;;;;5.59;80.38;98034.44;4189029;28;20021;-74
2022/02/20 09:24:15;;;;;;;2.50;1.40;;;;;;;5.70;80.34;98029.19;4194342;28;20025;-74
2022/02/20 09:26:15;;;;;;;5.35;2.60;;;;;;;5.69;81.20;98026.78;4191584;28;20416;-74
2022/02/20 09:28:15;;;;;;;6.50;1.70;;;;;;;5.63;80.88;98010.63;4189522;28;20455;-73
2022/02/20 09:30:16;;;;;;;7.60;1.85;;;;;;;5.61;79.19;98018.38;4191692;28;20325;-74
2022/02/20 09:32:20;;;;;;;2.58;1.60;;;;;;;5.63;82.20;98018.84;4192248;28;20131;-74
2022/02/20 09:34:20;;;;;;;3.78;1.30;;;;;;;5.59;82.13;98017.97;4189742;28;20047;-73